Time;durP1;ratioP1;P1;durP2;ratioP2;P2;SDS_P1;SDS_P2;PMS_P1;PMS_P2;Temp;Humidity;BMP_temperature;BMP_pressure;BME280_temperature;BME280_humidity;BME280_pressure;Samples;Min_cycle;Max_cycle;Signal;HPM_P1;HPM_P2
2023/12/17 00:02:53;;;;;;;31.83;17.73;;;;;;;4.59;64.70;102012.75;7738647;32;37068;-81
2023/12/17 00:07:29;;;;;;;27.08;16.00;;;;;;;4.28;65.90;102020.84;7738925;32;40281;-80
2023/12/17 00:11:46;;;;;;;30.40;16.42;;;;;;;4.52;65.32;102006.37;7738552;32;40567;-80
2023/12/17 00:16:03;;;;;;;33.28;17.67;;;;;;;4.57;65.22;102004.00;7738745;32;38846;-80
2023/12/17 00:20:19;;;;;;;33.47;17.05;;;;;;;4.03;66.50;102003.91;7728088;32;37266;-80
2023/12/17 00:24:35;;;;;;;30.27;16.87;;;;;;;4.37;65.42;101998.19;7712065;32;40436;-80
2023/12/17 00:28:52;;;;;;;32.38;15.77;;;;;;;4.57;64.55;102003.13;7711823;32;40871;-80
2023/12/17 00:33:08;;;;;;;26.58;16.15;;;;;;;4.38;64.91;102016.09;7711720;32;38028;-80
2023/12/17 00:37:24;;;;;;;39.88;18.35;;;;;;;4.47;64.88;102014.19;7711683;32;38010;-80
2023/12/17 00:41:41;;;;;;;28.80;16.48;;;;;;;4.52;65.20;101998.28;7711800;32;39401;-80
2023/12/17 00:45:57;;;;;;;31.85;16.40;;;;;;;4.39;65.17;102000.72;7711713;32;40029;-80
2023/12/17 00:50:13;;;;;;;33.33;16.20;;;;;;;4.47;64.94;102039.31;7711639;32;38757;-80
2023/12/17 00:54:29;;;;;;;29.15;15.95;;;;;;;4.48;64.67;102027.50;7710474;32;36871;-80
2023/12/17 00:58:46;;;;;;;32.25;16.33;;;;;;;4.17;65.54;102022.06;7711624;32;40113;-80
2023/12/17 01:03:02;;;;;;;30.05;15.50;;;;;;;4.37;64.59;102025.19;7711391;32;40784;-80
2023/12/17 01:07:19;;;;;;;35.75;17.48;;;;;;;4.50;63.87;102014.66;7716272;32;38048;-80
2023/12/17 01:11:35;;;;;;;29.42;16.50;;;;;;;4.25;64.62;101994.19;7738152;32;37981;-80
2023/12/17 01:15:51;;;;;;;30.42;15.02;;;;;;;3.98;65.02;101987.38;7738213;32;39492;-80
2023/12/17 01:20:08;;;;;;;27.65;14.75;;;;;;;3.93;65.10;101986.06;7737980;32;39636;-80
2023/12/17 01:24:24;;;;;;;33.00;16.40;;;;;;;4.24;64.25;101985.28;7738035;32;38666;-80
2023/12/17 01:28:41;;;;;;;32.60;16.83;;;;;;;4.08;65.42;101985.31;7737408;32;38186;-81
2023/12/17 01:32:57;;;;;;;32.72;16.65;;;;;;;4.16;65.13;101995.22;7716523;32;39360;-81
2023/12/17 01:37:13;;;;;;;31.05;16.35;;;;;;;4.04;65.61;102009.13;7711218;32;39842;-80
2023/12/17 01:41:30;;;;;;;30.45;17.10;;;;;;;4.17;65.28;101999.63;7711026;32;38045;-81
2023/12/17 01:45:47;;;;;;;32.55;16.40;;;;;;;4.06;65.58;102007.09;7710960;32;37246;-81
2023/12/17 01:50:03;;;;;;;30.15;16.42;;;;;;;4.30;65.12;102002.63;7710934;32;39402;-80
2023/12/17 01:54:20;;;;;;;34.13;17.12;;;;;;;4.11;65.77;102004.72;7709330;32;40162;-81
2023/12/17 01:58:36;;;;;;;30.83;16.58;;;;;;;3.76;67.02;102001.47;7710863;32;38703;-81
2023/12/17 02:02:52;;;;;;;31.42;15.88;;;;;;;4.15;66.10;101999.81;7730620;32;37947;-80
2023/12/17 02:07:09;;;;;;;30.10;16.33;;;;;;;4.00;66.48;102007.81;7737559;32;40155;-81
2023/12/17 02:11:25;;;;;;;28.23;15.15;;;;;;;4.21;65.90;101995.56;7737579;32;39854;-81
2023/12/17 02:15:41;;;;;;;28.42;16.10;;;;;;;4.15;65.99;101989.00;7737221;32;38220;-80
2023/12/17 02:19:58;;;;;;;32.28;15.80;;;;;;;4.41;64.88;101987.88;7737067;32;37382;-80
2023/12/17 02:24:14;;;;;;;30.92;16.25;;;;;;;4.33;64.78;101996.88;7733970;32;40024;-80
2023/12/17 02:28:31;;;;;;;27.00;16.10;;;;;;;3.89;65.96;101998.19;7710077;32;39989;-80
2023/12/17 02:32:47;;;;;;;28.70;15.77;;;;;;;3.97;65.71;101981.16;7709893;32;37567;-80
2023/12/17 02:37:04;;;;;;;34.60;16.40;;;;;;;4.21;64.87;101982.03;7709876;32;37248;-79
2023/12/17 02:41:21;;;;;;;31.30;16.00;;;;;;;4.18;64.44;101971.63;7711031;32;39342;-80
2023/12/17 02:45:37;;;;;;;31.37;16.33;;;;;;;4.20;64.44;101962.31;7711781;32;40890;-80
2023/12/17 02:49:53;;;;;;;23.52;14.80;;;;;;;4.16;64.47;101958.31;7713158;32;37709;-80
2023/12/17 02:54:10;;;;;;;30.73;16.33;;;;;;;4.13;64.88;101955.94;7713688;32;37911;-80
2023/12/17 02:58:27;;;;;;;27.98;16.60;;;;;;;3.85;66.03;101955.56;7715048;32;39393;-79
2023/12/17 03:02:43;;;;;;;25.50;15.20;;;;;;;3.50;67.48;101961.22;7739654;32;39795;-80
2023/12/17 03:07:00;;;;;;;27.42;16.02;;;;;;;3.85;66.25;101958.28;7738600;32;37886;-80
2023/12/17 03:11:16;;;;;;;28.27;15.63;;;;;;;4.02;65.79;101967.12;7751274;32;38023;-80
2023/12/17 03:15:32;;;;;;;33.47;16.33;;;;;;;4.22;65.21;101962.16;7739681;32;39860;-80
2023/12/17 03:19:49;;;;;;;32.78;16.02;;;;;;;4.17;65.04;101969.94;7739509;32;39977;-79
2023/12/17 03:24:05;;;;;;;30.08;15.15;;;;;;;4.34;64.14;101960.72;7751023;32;38183;-79
2023/12/17 03:28:22;;;;;;;26.27;15.02;;;;;;;4.19;64.16;101962.50;7739466;32;37012;-79
2023/12/17 03:32:38;;;;;;;33.85;15.90;;;;;;;4.11;64.30;101961.53;7739367;32;40013;-79
2023/12/17 03:36:55;;;;;;;26.77;15.95;;;;;;;4.26;63.65;101952.66;7739303;32;40876;-79
2023/12/17 03:41:25;;;;;;;28.05;16.12;;;;;;;4.03;63.97;101958.84;7739344;32;37978;-80
2023/12/17 03:45:41;;;;;;;30.58;15.48;;;;;;;3.84;65.45;101948.47;7739383;32;36061;-80
2023/12/17 03:49:58;;;;;;;32.90;15.55;;;;;;;3.60;66.71;101949.41;7739240;32;39893;-80
2023/12/17 03:54:14;;;;;;;28.02;15.68;;;;;;;3.67;66.50;101943.13;7737178;32;40764;-80
2023/12/17 03:58:30;;;;;;;26.67;14.57;;;;;;;3.86;65.97;101930.25;7739073;32;38201;-80
2023/12/17 04:02:47;;;;;;;29.42;15.93;;;;;;;3.93;65.56;101920.44;7738908;32;37843;-80
2023/12/17 04:07:03;;;;;;;27.25;15.07;;;;;;;3.33;67.08;101919.13;7738757;32;39407;-80
2023/12/17 04:11:20;;;;;;;25.45;14.82;;;;;;;3.21;67.72;101921.34;7738573;32;39617;-80
2023/12/17 04:15:36;;;;;;;28.38;15.52;;;;;;;3.21;67.50;101926.75;7738746;32;38737;-80
2023/12/17 04:19:52;;;;;;;25.85;14.00;;;;;;;3.45;66.80;101927.69;7738947;32;37365;-81
2023/12/17 04:24:09;;;;;;;26.02;13.88;;;;;;;3.54;66.15;101932.06;7738809;32;39575;-80
2023/12/17 04:28:25;;;;;;;28.35;14.55;;;;;;;3.47;66.37;101926.50;7738675;32;40163;-80
2023/12/17 04:32:41;;;;;;;25.42;14.02;;;;;;;3.08;67.86;101926.41;7738623;32;38497;-80
2023/12/17 04:36:59;;;;;;;23.75;13.77;;;;;;;3.31;67.40;101919.31;7738771;32;37514;-80
2023/12/17 04:41:16;;;;;;;27.95;13.50;;;;;;;3.52;66.62;101928.69;7738645;32;39159;-80
2023/12/17 04:45:32;;;;;;;22.17;13.25;;;;;;;3.64;66.10;101932.69;7738575;32;41661;-80
2023/12/17 04:49:49;;;;;;;22.92;12.37;;;;;;;3.07;67.66;101939.06;7717614;32;37974;-79
2023/12/17 04:54:05;;;;;;;19.62;10.93;;;;;;;2.80;68.84;101943.75;7711680;32;37786;-80
2023/12/17 04:58:21;;;;;;;19.70;12.68;;;;;;;2.91;68.44;101936.34;7711673;32;39926;-79
2023/12/17 05:02:38;;;;;;;20.42;11.18;;;;;;;2.80;68.93;101957.22;7711417;32;39733;-80
2023/12/17 05:06:54;;;;;;;24.90;11.95;;;;;;;2.90;69.05;101946.28;7710415;32;38043;-80
2023/12/17 05:11:10;;;;;;;19.73;10.77;;;;;;;3.37;67.18;101950.12;7711431;32;37191;-80
2023/12/17 05:15:27;;;;;;;21.45;10.82;;;;;;;2.76;69.15;101950.50;7711390;32;39447;-80
2023/12/17 05:19:43;;;;;;;23.77;11.10;;;;;;;2.62;69.29;101948.44;7711500;32;39933;-80
2023/12/17 05:23:59;;;;;;;21.05;11.82;;;;;;;2.87;68.38;101965.47;7711372;32;37817;-80
2023/12/17 05:28:16;;;;;;;15.60;10.18;;;;;;;3.16;66.90;101972.22;7711336;32;36937;-80
2023/12/17 05:32:32;;;;;;;21.17;11.35;;;;;;;2.97;67.30;101979.63;7711172;32;39410;-81
2023/12/17 05:36:50;;;;;;;15.32;10.40;;;;;;;3.22;66.54;101982.31;7711107;32;40013;-80
2023/12/17 05:41:06;;;;;;;16.85;10.93;;;;;;;2.86;67.33;101981.81;7716944;32;38896;-79
2023/12/17 05:45:23;;;;;;;18.52;9.90;;;;;;;2.56;67.84;101971.50;7737931;32;38025;-79
2023/12/17 05:49:39;;;;;;;32.53;14.00;;;;;;;3.00;66.65;101971.22;7717629;32;39485;-79
2023/12/17 05:53:56;;;;;;;42.03;20.80;;;;;;;2.73;67.52;101952.69;7710853;32;39989;-79
2023/12/17 05:58:12;;;;;;;17.83;10.45;;;;;;;3.01;66.10;101943.25;7710800;32;38752;-79
2023/12/17 06:02:29;;;;;;;18.83;11.50;;;;;;;3.00;66.30;101936.19;7710555;32;38034;-79
2023/12/17 06:06:46;;;;;;;19.12;10.90;;;;;;;3.30;64.83;101917.63;7710729;32;39377;-80
2023/12/17 06:11:03;;;;;;;19.35;11.55;;;;;;;3.40;64.18;101920.12;7715407;32;40025;-80
2023/12/17 06:15:20;;;;;;;19.08;10.35;;;;;;;3.32;64.29;101918.28;7736706;32;37896;-79
2023/12/17 06:19:37;;;;;;;18.75;10.57;;;;;;;3.50;63.58;101915.37;7735949;32;37209;-79
2023/12/17 06:24:02;;;;;;;17.20;9.70;;;;;;;3.64;62.92;101919.22;7720909;32;38941;-79
2023/12/17 06:28:20;;;;;;;16.35;10.13;;;;;;;3.70;62.12;101914.97;7714487;32;40780;-80
2023/12/17 06:32:36;;;;;;;33.08;18.42;;;;;;;3.71;62.00;101917.50;7736846;32;37815;-80
2023/12/17 06:36:52;;;;;;;27.70;14.23;;;;;;;2.86;65.24;101934.16;7736738;32;37341;-80
2023/12/17 06:41:09;;;;;;;24.17;14.00;;;;;;;2.53;66.68;101934.13;7719494;32;39467;-80
2023/12/17 06:45:25;;;;;;;26.42;12.45;;;;;;;2.95;65.31;101949.31;7709623;32;40930;-81
2023/12/17 06:49:41;;;;;;;21.30;12.68;;;;;;;3.11;64.78;101943.09;7709573;32;38539;-80
2023/12/17 06:53:58;;;;;;;22.00;12.50;;;;;;;3.30;64.03;101941.87;7708256;32;38021;-79
2023/12/17 06:58:14;;;;;;;22.25;12.75;;;;;;;2.88;65.51;101948.31;7709662;32;39484;-80
2023/12/17 07:02:33;;;;;;;23.77;12.85;;;;;;;3.28;64.35;101948.47;7709023;32;39636;-80
2023/12/17 07:06:50;;;;;;;29.67;14.63;;;;;;;3.30;64.36;101936.47;7709125;32;38197;-69
2023/12/17 07:11:06;;;;;;;23.70;14.02;;;;;;;3.43;71.06;101927.84;7709197;32;38049;-80
2023/12/17 07:15:22;;;;;;;26.00;14.60;;;;;;;3.37;65.75;101923.16;7709111;32;40238;-80
2023/12/17 07:19:38;;;;;;;25.20;13.35;;;;;;;3.33;65.13;101924.53;7708079;32;39868;-80
2023/12/17 07:23:56;;;;;;;24.23;12.80;;;;;;;3.52;63.91;101917.91;7719250;32;38856;-80
2023/12/17 07:28:12;;;;;;;20.17;12.18;;;;;;;3.47;64.50;101923.81;7709942;32;37942;-82
2023/12/17 07:32:28;;;;;;;19.15;10.93;;;;;;;3.68;63.74;101923.25;7715401;32;39465;-80
2023/12/17 07:36:46;;;;;;;25.40;13.60;;;;;;;4.04;62.33;101922.75;7712178;32;40139;-79
2023/12/17 07:41:03;;;;;;;19.67;11.43;;;;;;;4.09;62.62;101938.44;7711565;32;36932;-79
2023/12/17 07:45:19;;;;;;;19.30;10.27;;;;;;;3.91;62.52;101941.38;7711508;32;36923;-80
2023/12/17 07:49:36;;;;;;;20.12;11.68;;;;;;;4.10;62.52;101940.94;7711518;32;39954;-79
2023/12/17 07:53:52;;;;;;;19.42;10.55;;;;;;;3.38;64.49;101943.69;7717626;32;39909;-80
2023/12/17 07:58:09;;;;;;;23.15;12.35;;;;;;;4.23;62.65;101936.84;7739058;32;38774;-80
2023/12/17 08:02:26;;;;;;;25.90;12.80;;;;;;;4.52;61.40;101949.66;7738967;32;37372;-80
2023/12/17 08:06:42;;;;;;;24.70;11.43;;;;;;;4.46;61.74;101953.91;7739171;32;39299;-81
2023/12/17 08:10:59;;;;;;;22.27;12.20;;;;;;;4.72;61.13;101958.13;7717136;32;40046;-76
2023/12/17 08:15:15;;;;;;;26.52;12.85;;;;;;;4.82;61.05;101953.31;7718471;32;38204;-77
2023/12/17 08:19:31;;;;;;;22.67;12.15;;;;;;;5.17;60.44;101961.81;7713217;32;37258;-79
2023/12/17 08:23:47;;;;;;;20.95;13.27;;;;;;;5.58;59.11;101964.12;7718555;32;40081;-77
2023/12/17 08:28:05;;;;;;;20.55;10.85;;;;;;;4.94;60.68;101959.13;7692778;32;39760;-77
2023/12/17 08:32:21;;;;;;;18.67;10.88;;;;;;;5.69;58.22;101970.09;7711713;32;38610;-79
2023/12/17 08:36:41;;;;;;;19.83;11.10;;;;;;;5.19;58.45;101973.31;7711548;32;37915;-77
2023/12/17 08:40:57;;;;;;;20.05;10.50;;;;;;;5.08;59.25;101976.44;7726391;32;40311;-78
2023/12/17 08:45:13;;;;;;;19.70;10.57;;;;;;;5.76;58.35;101976.44;7711685;32;40558;-77
2023/12/17 08:49:30;;;;;;;18.58;11.00;;;;;;;5.70;58.75;101977.19;7712400;32;37857;-78
2023/12/17 08:53:46;;;;;;;20.45;10.77;;;;;;;6.42;56.81;101972.97;7728876;32;37927;-77
2023/12/17 08:58:03;;;;;;;20.67;10.57;;;;;;;6.48;55.95;101974.91;7734448;32;39530;-79
2023/12/17 09:02:19;;;;;;;19.45;9.60;;;;;;;6.43;56.39;101963.78;7737805;32;40817;-79
2023/12/17 09:06:45;;;;;;;22.40;11.02;;;;;;;5.87;57.25;101967.88;7738056;32;37886;-79
2023/12/17 09:11:02;;;;;;;18.73;10.20;;;;;;;6.24;56.91;101967.94;7735136;32;37064;-79
2023/12/17 09:15:18;;;;;;;17.67;9.68;;;;;;;6.79;56.34;101965.63;7731955;32;39634;-77
2023/12/17 09:19:34;;;;;;;17.40;9.60;;;;;;;6.85;56.29;101960.28;7729864;32;40054;-77
2023/12/17 09:23:51;;;;;;;19.27;9.55;;;;;;;7.01;55.39;101953.75;7737885;32;38750;-77
2023/12/17 09:28:07;;;;;;;17.55;9.98;;;;;;;6.97;55.72;101947.03;7731720;32;37078;-76
2023/12/17 09:32:23;;;;;;;18.33;9.63;;;;;;;7.27;55.56;101960.41;7711555;32;39256;-77
2023/12/17 09:36:41;;;;;;;19.90;11.23;;;;;;;7.69;53.12;101950.47;7730683;32;40629;-77
2023/12/17 09:40:57;;;;;;;17.23;9.65;;;;;;;6.98;55.74;101953.28;7710971;32;38043;-77
2023/12/17 09:45:14;;;;;;;22.62;10.52;;;;;;;7.09;55.65;101950.91;7718996;32;37078;-77
2023/12/17 09:49:31;;;;;;;20.58;9.35;;;;;;;7.41;55.48;101937.75;7710836;32;39525;-77
2023/12/17 09:53:48;;;;;;;43.55;19.83;;;;;;;7.18;55.52;101942.63;7710029;32;40878;-75
2023/12/17 09:58:05;;;;;;;28.05;12.32;;;;;;;6.93;56.87;101938.47;7710498;32;37909;-77
2023/12/17 10:02:21;;;;;;;25.80;13.30;;;;;;;7.02;56.98;101922.03;7722958;32;37970;-78
2023/12/17 10:06:37;;;;;;;21.77;10.23;;;;;;;7.57;56.22;101924.94;7710645;32;39367;-76
2023/12/17 10:10:53;;;;;;;15.23;7.22;;;;;;;7.58;55.42;101927.44;7710324;32;39690;-84
2023/12/17 10:15:10;;;;;;;14.07;8.15;;;;;;;7.87;55.30;101920.09;7710307;32;38633;-82
2023/12/17 10:19:29;;;;;;;14.40;6.95;;;;;;;7.69;55.24;101912.47;7710631;32;37210;-83
2023/12/17 10:23:50;;;;;;;12.02;7.20;;;;;;;7.24;57.13;101920.12;7711033;32;39080;-75
2023/12/17 10:28:08;;;;;;;10.45;6.12;;;;;;;7.83;55.98;101907.94;7710232;32;39843;-76
2023/12/17 10:32:26;;;;;;;12.15;6.97;;;;;;;7.63;56.38;101913.28;7719309;32;37209;-76
2023/12/17 10:36:43;;;;;;;11.43;6.70;;;;;;;7.84;55.84;101905.03;7712717;32;37267;-75
2023/12/17 10:41:00;;;;;;;14.07;7.10;;;;;;;7.72;55.29;101914.78;7735657;32;39062;-76
2023/12/17 10:45:18;;;;;;;13.77;6.93;;;;;;;8.31;54.23;101899.75;7731635;32;39857;-76
2023/12/17 10:49:35;;;;;;;11.68;6.80;;;;;;;8.47;53.60;101890.44;7724650;32;38210;-85
2023/12/17 10:53:51;;;;;;;12.68;7.68;;;;;;;8.58;52.64;101889.81;7707940;32;37840;-84
2023/12/17 10:58:15;;;;;;;14.05;6.93;;;;;;;8.69;53.52;101877.47;7709192;32;39937;-80
2023/12/17 11:02:31;;;;;;;15.35;8.60;;;;;;;8.52;53.15;101882.50;7709680;32;40934;-82
2023/12/17 11:06:48;;;;;;;13.85;7.82;;;;;;;7.95;54.88;101872.88;7711845;32;37757;-82
2023/12/17 11:11:04;;;;;;;13.07;7.53;;;;;;;8.26;54.06;101873.22;7713277;32;37866;-77
2023/12/17 11:15:25;;;;;;;11.75;7.03;;;;;;;8.50;53.66;101870.97;7711838;32;40100;-78
2023/12/17 11:19:54;;;;;;;14.50;6.82;;;;;;;8.90;51.72;101868.28;7712688;32;39786;-81
2023/12/17 11:24:11;;;;;;;15.80;7.22;;;;;;;8.72;52.14;101862.62;7712803;32;37814;-78
2023/12/17 11:28:29;;;;;;;14.20;7.75;;;;;;;8.42;52.04;101868.44;7711704;32;36832;-77
2023/12/17 11:32:46;;;;;;;21.35;11.38;;;;;;;8.23;53.30;101864.63;7736663;32;39646;-78
2023/12/17 11:37:03;;;;;;;11.50;6.95;;;;;;;8.88;52.50;101858.66;7712540;32;39933;-82
2023/12/17 11:41:19;;;;;;;13.75;8.07;;;;;;;8.73;51.78;101853.44;7712547;32;38308;-79
2023/12/17 11:45:37;;;;;;;14.75;7.50;;;;;;;9.12;51.19;101846.28;7713235;32;37119;-81
2023/12/17 11:50:01;;;;;;;11.50;6.32;;;;;;;9.16;50.04;101832.03;7712613;32;39434;-82
2023/12/17 11:54:23;;;;;;;10.90;6.57;;;;;;;9.38;49.73;101840.78;7712338;32;40843;-78
2023/12/17 11:58:50;;;;;;;11.65;6.78;;;;;;;8.75;51.52;101830.41;7712358;32;37665;-80
2023/12/17 12:03:06;;;;;;;12.10;6.28;;;;;;;8.61;51.56;101824.13;7712025;32;37912;-80
2023/12/17 12:07:24;;;;;;;14.43;7.32;;;;;;;8.30;52.58;101827.44;7738759;32;39823;-80
2023/12/17 12:11:40;;;;;;;11.70;5.80;;;;;;;8.62;53.22;101828.53;7738981;32;39867;-79
2023/12/17 12:16:00;;;;;;;9.30;5.93;;;;;;;8.93;51.40;101821.59;7738490;32;37966;-79
2023/12/17 12:20:32;;;;;;;14.27;6.37;;;;;;;8.92;52.24;101830.81;7731487;32;37896;-78
2023/12/17 12:24:53;;;;;;;10.45;5.70;;;;;;;9.45;51.17;101829.03;7712821;32;39134;-77
2023/12/17 12:29:09;;;;;;;9.63;5.20;;;;;;;9.91;50.04;101819.81;7709219;32;40753;-78
2023/12/17 12:33:26;;;;;;;9.85;5.70;;;;;;;10.75;47.86;101817.81;7720011;32;38493;-78
2023/12/17 12:37:46;;;;;;;11.88;6.40;;;;;;;11.14;47.11;101815.75;7711837;32;37032;-79
2023/12/17 12:42:02;;;;;;;13.50;6.30;;;;;;;11.35;45.97;101808.16;7711714;32;39404;-77
2023/12/17 12:46:19;;;;;;;11.45;5.95;;;;;;;11.74;45.47;101803.28;7711619;32;40884;-75
2023/12/17 12:50:35;;;;;;;9.65;5.47;;;;;;;11.76;44.57;101809.34;7711604;32;37910;-75
2023/12/17 12:54:52;;;;;;;10.82;5.68;;;;;;;12.37;42.99;101800.06;7711878;32;37947;-78
2023/12/17 12:59:08;;;;;;;7.62;4.60;;;;;;;12.56;42.00;101789.06;7711801;32;39313;-75
2023/12/17 13:03:40;;;;;;;9.45;4.82;;;;;;;10.96;45.25;101800.19;7692149;32;40774;-80
2023/12/17 13:07:56;;;;;;;9.80;4.85;;;;;;;10.80;45.95;101807.06;7711442;32;38278;-81
2023/12/17 13:12:13;;;;;;;9.93;5.05;;;;;;;10.81;45.95;101805.16;7702404;32;223459;-79
2023/12/17 13:16:29;;;;;;;11.70;5.47;;;;;;;10.51;47.08;101805.84;7735658;32;39070;-79
2023/12/17 13:20:45;;;;;;;10.65;5.68;;;;;;;10.64;46.50;101802.16;7737527;32;41304;-79
2023/12/17 13:25:03;;;;;;;9.40;5.12;;;;;;;12.05;44.07;101796.78;7719552;32;37777;-78
2023/12/17 13:29:19;;;;;;;10.57;5.20;;;;;;;12.87;41.97;101798.00;7710627;32;37681;-78
2023/12/17 13:33:36;;;;;;;8.52;5.32;;;;;;;12.40;41.92;101785.13;7710714;32;39159;-78
2023/12/17 13:37:52;;;;;;;10.52;5.82;;;;;;;12.40;42.46;101780.47;7710555;32;39984;-78
2023/12/17 13:42:09;;;;;;;10.65;5.70;;;;;;;12.86;41.39;101782.63;7709452;32;38044;-78
2023/12/17 13:46:25;;;;;;;9.63;5.43;;;;;;;12.90;42.21;101783.81;7710930;32;37861;-79
2023/12/17 13:50:45;;;;;;;10.02;5.45;;;;;;;13.49;40.52;101781.84;7711074;32;39867;-80
2023/12/17 13:55:07;;;;;;;10.73;5.12;;;;;;;13.70;39.45;101776.78;7710929;32;40803;-74
2023/12/17 13:59:24;;;;;;;12.85;5.28;;;;;;;15.41;38.68;101773.75;7709844;32;38718;-79
2023/12/17 14:03:40;;;;;;;9.02;4.30;;;;;;;16.84;32.75;101763.31;7710625;32;37116;-77
2023/12/17 14:07:58;;;;;;;9.20;5.12;;;;;;;17.86;30.63;101752.97;7710797;32;39407;-76
2023/12/17 14:12:14;;;;;;;10.95;5.60;;;;;;;16.82;32.48;101759.97;7708995;32;39976;-78
2023/12/17 14:16:31;;;;;;;10.20;5.72;;;;;;;15.49;34.64;101767.81;7710388;32;38782;-79
2023/12/17 14:20:47;;;;;;;12.18;5.55;;;;;;;14.64;37.03;101759.81;7710090;32;37840;-80
2023/12/17 14:25:08;;;;;;;11.85;6.20;;;;;;;15.80;34.93;101748.94;7710287;32;39889;-77
2023/12/17 14:29:24;;;;;;;13.23;6.00;;;;;;;15.84;34.99;101750.06;7710212;32;40050;-76
2023/12/17 14:33:41;;;;;;;16.87;7.45;;;;;;;16.07;34.88;101754.41;7709478;32;39389;-76
2023/12/17 14:37:58;;;;;;;12.25;6.85;;;;;;;15.43;35.41;101768.00;7711469;32;37464;-79
2023/12/17 14:42:14;;;;;;;14.10;7.60;;;;;;;13.95;37.93;101784.62;7713314;32;38790;-79
2023/12/17 14:46:32;;;;;;;15.82;8.32;;;;;;;12.64;40.85;101785.97;7711130;32;39921;-79
2023/12/17 14:50:48;;;;;;;16.08;8.90;;;;;;;12.65;40.86;101776.69;7710842;32;37926;-79
2023/12/17 14:55:05;;;;;;;13.15;7.50;;;;;;;11.85;42.94;101780.66;7711820;32;37211;-79
2023/12/17 14:59:21;;;;;;;12.60;7.00;;;;;;;11.57;43.57;101782.06;7711861;32;39125;-79
2023/12/17 15:03:38;;;;;;;11.20;6.22;;;;;;;10.99;45.05;101779.81;7712819;32;40667;-79
2023/12/17 15:07:54;;;;;;;14.27;6.57;;;;;;;10.45;46.48;101793.06;7712890;32;37903;-79
2023/12/17 15:12:10;;;;;;;15.23;8.00;;;;;;;9.87;47.79;101783.19;7713002;32;37146;-79
2023/12/17 15:16:28;;;;;;;13.68;8.20;;;;;;;9.97;47.49;101783.53;7712856;32;39554;-79
2023/12/17 15:20:45;;;;;;;19.08;9.45;;;;;;;9.66;48.34;101789.75;7712864;32;40260;-79
2023/12/17 15:25:02;;;;;;;19.40;10.93;;;;;;;9.33;49.14;101783.44;7712789;32;37758;-79
2023/12/17 15:29:18;;;;;;;23.50;12.40;;;;;;;9.18;49.60;101782.84;7712692;32;37320;-79
2023/12/17 15:33:36;;;;;;;22.67;11.55;;;;;;;9.09;49.83;101781.38;7712630;32;39260;-79
2023/12/17 15:37:52;;;;;;;19.80;9.60;;;;;;;8.92;50.21;101787.31;7712398;32;39965;-79
2023/12/17 15:42:08;;;;;;;16.80;8.50;;;;;;;8.90;50.31;101788.53;7712532;32;38713;-79
2023/12/17 15:46:31;;;;;;;15.35;8.43;;;;;;;8.65;51.06;101776.44;7712561;32;37283;-79
2023/12/17 15:50:47;;;;;;;18.48;8.95;;;;;;;8.51;51.43;101774.78;7711965;32;39281;-79
2023/12/17 15:55:03;;;;;;;15.48;9.15;;;;;;;8.52;51.47;101765.59;7712553;32;40784;-79
2023/12/17 15:59:20;;;;;;;15.85;8.77;;;;;;;8.22;52.11;101774.09;7712341;32;38057;-79
2023/12/17 16:03:36;;;;;;;17.73;9.00;;;;;;;8.12;52.44;101776.41;7712161;32;37117;-79
2023/12/17 16:07:55;;;;;;;20.52;9.77;;;;;;;7.94;52.81;101785.16;7712293;32;40282;-79
2023/12/17 16:12:11;;;;;;;17.55;9.93;;;;;;;8.01;52.52;101777.84;7712102;32;40149;-77
2023/12/17 16:16:28;;;;;;;17.55;10.38;;;;;;;7.60;53.77;101777.94;7711998;32;37646;-76
2023/12/17 16:20:44;;;;;;;15.13;8.88;;;;;;;7.51;53.98;101780.84;7711937;32;38050;-76
2023/12/17 16:25:03;;;;;;;19.10;9.30;;;;;;;7.70;53.50;101789.25;7712063;32;39431;-76
2023/12/17 16:29:19;;;;;;;15.40;9.93;;;;;;;7.38;54.44;101791.66;7711991;32;39803;-76
2023/12/17 16:33:36;;;;;;;17.52;10.30;;;;;;;7.59;53.98;101787.13;7711922;32;38680;-76
2023/12/17 16:37:52;;;;;;;18.27;10.98;;;;;;;7.55;53.99;101794.84;7711765;32;37959;-76
2023/12/17 16:42:09;;;;;;;18.05;10.40;;;;;;;7.44;54.53;101796.25;7711802;32;39370;-76
2023/12/17 16:46:25;;;;;;;44.00;19.37;;;;;;;7.33;54.66;101789.53;7723202;32;40782;-76
2023/12/17 16:50:44;;;;;;;28.58;12.93;;;;;;;7.07;55.69;101798.38;7711685;32;38455;-76
2023/12/17 16:55:01;;;;;;;25.95;11.43;;;;;;;7.05;55.68;101803.13;7711631;32;37972;-77
2023/12/17 16:59:17;;;;;;;21.58;11.77;;;;;;;7.13;55.46;101789.41;7711556;32;39430;-77
2023/12/17 17:03:34;;;;;;;19.65;11.15;;;;;;;7.30;54.92;101794.53;7711325;32;40828;-76
2023/12/17 17:07:51;;;;;;;20.75;12.02;;;;;;;7.17;55.03;101779.00;7711803;32;37944;-77
2023/12/17 17:12:08;;;;;;;23.23;12.32;;;;;;;7.09;55.64;101792.75;7711751;32;37490;-76
2023/12/17 17:16:24;;;;;;;24.25;13.15;;;;;;;7.15;55.27;101792.75;7711439;32;40071;-77
2023/12/17 17:20:40;;;;;;;30.58;14.38;;;;;;;6.96;55.95;101788.91;7711337;32;40733;-78
2023/12/17 17:24:57;;;;;;;26.92;13.43;;;;;;;6.99;55.79;101787.69;7711317;32;38047;-78
2023/12/17 17:29:14;;;;;;;23.52;13.45;;;;;;;7.08;55.46;101786.47;7711326;32;37959;-76
2023/12/17 17:33:31;;;;;;;21.77;13.02;;;;;;;7.01;55.42;101782.87;7711287;32;39327;-76
2023/12/17 17:37:48;;;;;;;21.23;11.68;;;;;;;7.24;54.67;101779.88;7711235;32;39970;-76
2023/12/17 17:42:05;;;;;;;23.38;11.43;;;;;;;7.16;54.80;101782.78;7711029;32;37961;-76
2023/12/17 17:46:22;;;;;;;19.83;10.23;;;;;;;7.02;55.27;101791.84;7710981;32;37015;-76
2023/12/17 17:50:38;;;;;;;18.20;10.20;;;;;;;6.75;55.96;101791.69;7711052;32;40029;-76
2023/12/17 17:54:54;;;;;;;23.23;11.20;;;;;;;7.07;55.01;101789.37;7710857;32;40740;-76
2023/12/17 17:59:11;;;;;;;21.05;12.05;;;;;;;7.17;54.77;101794.44;7710727;32;38050;-76
2023/12/17 18:03:27;;;;;;;25.40;13.77;;;;;;;6.85;55.61;101794.06;7710584;32;37292;-76
2023/12/17 18:07:43;;;;;;;24.40;12.13;;;;;;;6.88;55.50;101786.37;7709526;32;40017;-76
2023/12/17 18:12:03;;;;;;;22.80;13.23;;;;;;;6.79;55.74;101786.69;7709771;32;40676;-76
2023/12/17 18:16:20;;;;;;;27.13;14.27;;;;;;;6.71;56.27;101785.81;7710450;32;37691;-76
2023/12/17 18:20:37;;;;;;;29.73;14.50;;;;;;;6.64;56.03;101779.53;7709262;32;37294;-76
2023/12/17 18:24:53;;;;;;;24.23;14.43;;;;;;;6.76;55.50;101780.66;7710385;32;39341;-76
2023/12/17 18:29:12;;;;;;;28.80;15.18;;;;;;;6.71;55.51;101769.56;7710456;32;40254;-76
2023/12/17 18:33:29;;;;;;;28.30;16.05;;;;;;;6.65;55.62;101773.03;7710102;32;38045;-76
2023/12/17 18:37:45;;;;;;;33.35;18.42;;;;;;;6.56;55.81;101766.94;7710027;32;37999;-76
2023/12/17 18:42:02;;;;;;;29.87;17.98;;;;;;;6.79;55.18;101759.59;7709939;32;40003;-76
2023/12/17 18:46:19;;;;;;;44.30;20.95;;;;;;;6.62;55.66;101769.91;7709734;32;40768;-76
2023/12/17 18:50:37;;;;;;;37.95;20.50;;;;;;;6.79;54.99;101770.44;7709609;32;37710;-77
2023/12/17 18:55:02;;;;;;;33.55;18.45;;;;;;;6.70;55.36;101773.28;7709601;32;37060;-77
2023/12/17 18:59:18;;;;;;;26.12;15.43;;;;;;;6.44;55.93;101773.09;7709751;32;39014;-77
2023/12/17 19:03:35;;;;;;;27.33;15.32;;;;;;;6.48;56.02;101768.94;7709191;32;40917;-76
2023/12/17 19:07:51;;;;;;;29.52;15.68;;;;;;;6.24;56.77;101762.91;7709221;32;38053;-77
2023/12/17 19:12:10;;;;;;;28.95;15.43;;;;;;;6.42;56.28;101756.22;7709084;32;37270;-76
2023/12/17 19:16:26;;;;;;;33.70;19.87;;;;;;;6.47;55.86;101754.56;7709038;32;40097;-77
2023/12/17 19:20:43;;;;;;;33.15;17.25;;;;;;;5.87;57.82;101748.59;7708917;32;40855;-77
2023/12/17 19:24:59;;;;;;;32.03;15.90;;;;;;;5.79;58.31;101740.59;7710745;32;38179;-76
2023/12/17 19:29:15;;;;;;;25.65;15.70;;;;;;;6.01;57.68;101747.72;7712702;32;37214;-76
2023/12/17 19:33:31;;;;;;;34.88;17.37;;;;;;;6.14;56.76;101752.44;7712801;32;40067;-76
2023/12/17 19:37:48;;;;;;;33.13;17.60;;;;;;;6.21;56.34;101747.06;7712497;32;39739;-76
2023/12/17 19:42:05;;;;;;;30.40;16.25;;;;;;;6.27;56.05;101750.88;7712483;32;38701;-76
2023/12/17 19:46:22;;;;;;;26.00;14.25;;;;;;;6.42;55.53;101748.09;7712457;32;37013;-77